createdAt,value
2019-05-05T00:02:10.510Z,7.60
2019-05-05T00:04:55.804Z,7.60
2019-05-05T00:07:29.533Z,7.60
2019-05-05T00:09:59.108Z,7.50
2019-05-05T00:12:40.776Z,7.40
2019-05-05T00:15:34.523Z,7.40
2019-05-05T00:18:05.436Z,7.30
2019-05-05T00:20:34.913Z,7.20
2019-05-05T00:23:05.344Z,7.20
2019-05-05T00:25:35.320Z,7.10
2019-05-05T00:28:05.099Z,7.10
2019-05-05T00:30:36.075Z,7.10
2019-05-05T00:33:05.824Z,7.20
2019-05-05T00:35:35.094Z,7.20
2019-05-05T00:38:05.046Z,7.10
2019-05-05T00:40:35.389Z,7.10
2019-05-05T00:43:06.132Z,7.00
2019-05-05T00:45:37.162Z,7.00
2019-05-05T00:48:17.901Z,7.00
2019-05-05T00:50:47.177Z,7.00
2019-05-05T00:53:16.461Z,7.10
2019-05-05T00:55:45.802Z,7.10
2019-05-05T00:58:15.105Z,7.00
2019-05-05T01:01:00.493Z,6.90
2019-05-05T01:03:29.802Z,6.80
2019-05-05T01:06:04.882Z,6.70
2019-05-05T01:08:35.277Z,6.60
2019-05-05T01:11:05.494Z,6.60
2019-05-05T01:13:35.183Z,6.50
2019-05-05T01:16:05.212Z,6.60
2019-05-05T01:18:35.167Z,6.60
2019-05-05T01:21:05.567Z,6.50
2019-05-05T01:23:35.091Z,6.50
2019-05-05T01:26:06.322Z,6.50
2019-05-05T01:28:35.734Z,6.50
2019-05-05T01:31:10.492Z,6.50
2019-05-05T01:34:15.101Z,6.60
2019-05-05T01:36:46.882Z,6.60
2019-05-05T01:39:22.866Z,6.40
2019-05-05T01:41:56.208Z,6.30
2019-05-05T01:44:25.545Z,6.30
2019-05-05T01:46:55.157Z,6.20
2019-05-05T01:49:25.307Z,6.30
2019-05-05T01:51:55.473Z,6.30
2019-05-05T01:54:25.461Z,6.30
2019-05-05T01:56:55.668Z,6.40
2019-05-05T01:59:26.662Z,6.40
2019-05-05T02:01:56.501Z,6.50
2019-05-05T02:04:25.803Z,6.40
2019-05-05T02:06:55.826Z,6.40
2019-05-05T02:09:25.272Z,6.50
2019-05-05T02:11:55.262Z,6.50
2019-05-05T02:14:25.159Z,6.40
2019-05-05T02:16:55.053Z,6.30
2019-05-05T02:19:25.135Z,6.30
2019-05-05T02:21:55.734Z,6.30
2019-05-05T02:24:25.346Z,6.20
2019-05-05T02:26:56.343Z,6.30
2019-05-05T02:29:32.105Z,6.30
2019-05-05T02:32:18.997Z,6.30
2019-05-05T02:34:56.272Z,6.30
2019-05-05T02:37:25.724Z,6.20
2019-05-05T02:40:02.505Z,6.10
2019-05-05T02:42:29.207Z,6.10
2019-05-05T02:45:05.010Z,6.10
2019-05-05T02:47:55.106Z,5.90
2019-05-05T02:50:46.673Z,5.90
2019-05-05T02:53:04.086Z,6.00
2019-05-05T02:55:35.575Z,6.10
2019-05-05T02:58:05.304Z,6.00
2019-05-05T03:00:54.221Z,6.00
2019-05-05T03:03:25.270Z,6.00
2019-05-05T03:05:56.008Z,6.00
2019-05-05T03:08:26.438Z,6.00
2019-05-05T03:10:57.361Z,5.90
2019-05-05T03:13:26.665Z,5.80
2019-05-05T03:16:14.054Z,5.70
2019-05-05T03:18:44.137Z,5.70
2019-05-05T03:21:14.202Z,5.80
2019-05-05T03:23:44.117Z,5.70
2019-05-05T03:26:17.164Z,5.70
2019-05-05T03:28:54.430Z,5.50
2019-05-05T03:31:26.221Z,5.60
2019-05-05T03:33:56.817Z,5.40
2019-05-05T03:36:28.011Z,5.40
2019-05-05T03:38:57.755Z,5.40
2019-05-05T03:41:38.285Z,5.50
2019-05-05T03:44:27.376Z,5.50
2019-05-05T03:46:57.201Z,5.60
2019-05-05T03:49:27.801Z,5.60
2019-05-05T03:51:58.128Z,5.60
2019-05-05T03:54:28.673Z,5.60
2019-05-05T03:57:10.022Z,5.70
2019-05-05T03:59:44.052Z,5.70
2019-05-05T04:02:28.137Z,5.70
2019-05-05T04:05:00.241Z,5.70
2019-05-05T04:07:29.533Z,5.60
2019-05-05T04:09:58.887Z,5.50
2019-05-05T04:12:28.805Z,5.50
2019-05-05T04:14:59.682Z,5.60
2019-05-05T04:17:54.072Z,5.60
2019-05-05T04:20:35.509Z,5.60
2019-05-05T04:23:04.865Z,5.60
2019-05-05T04:25:34.929Z,5.50
2019-05-05T04:28:04.807Z,5.60
2019-05-05T04:30:34.276Z,5.50
2019-05-05T04:33:05.090Z,5.50
2019-05-05T04:35:34.784Z,5.50
2019-05-05T04:38:05.132Z,5.30
2019-05-05T04:40:34.663Z,5.30
2019-05-05T04:43:04.570Z,5.40
2019-05-05T04:45:34.679Z,5.40
2019-05-05T04:48:14.678Z,5.40
2019-05-05T04:50:54.416Z,5.50
2019-05-05T04:53:29.186Z,5.50
2019-05-05T04:55:58.554Z,5.50
2019-05-05T04:58:27.857Z,5.50
2019-05-05T05:00:57.193Z,5.40
2019-05-05T05:03:54.348Z,5.40
2019-05-05T05:06:34.083Z,5.50
2019-05-05T05:09:04.057Z,5.50
2019-05-05T05:11:33.927Z,5.40
2019-05-05T05:14:03.921Z,5.40
2019-05-05T05:16:35.693Z,5.40
2019-05-05T05:19:04.944Z,5.30
2019-05-05T05:21:34.444Z,5.20
2019-05-05T05:24:04.064Z,5.20
2019-05-05T05:26:34.134Z,5.20
2019-05-05T05:29:04.521Z,5.20
2019-05-05T05:31:35.609Z,5.20
2019-05-05T05:34:05.249Z,5.30
2019-05-05T05:36:34.565Z,5.10
2019-05-05T05:39:24.452Z,5.10
2019-05-05T05:41:54.214Z,5.10
2019-05-05T05:44:41.617Z,5.10
2019-05-05T05:47:33.848Z,5.10
2019-05-05T05:50:16.629Z,5.20
2019-05-05T05:52:46.113Z,5.20
2019-05-05T05:55:15.414Z,5.10
2019-05-05T05:57:44.832Z,5.10
2019-05-05T06:00:17.042Z,5.20
2019-05-05T06:02:46.418Z,5.30
2019-05-05T06:05:16.089Z,5.20
2019-05-05T06:07:45.458Z,5.10
2019-05-05T06:10:22.115Z,5.10
2019-05-05T06:12:46.260Z,5.10
2019-05-05T06:15:16.386Z,5.30
2019-05-05T06:17:45.769Z,5.30
2019-05-05T06:20:15.109Z,5.30
2019-05-05T06:22:45.418Z,5.30
2019-05-05T06:25:15.846Z,5.30
2019-05-05T06:27:45.852Z,5.30
2019-05-05T06:30:15.598Z,5.40
2019-05-05T06:32:45.775Z,5.40
2019-05-05T06:35:15.837Z,5.40
2019-05-05T06:37:54.797Z,5.50
2019-05-05T06:40:44.415Z,5.50
2019-05-05T06:43:44.002Z,5.60
2019-05-05T06:46:16.024Z,5.50
2019-05-05T06:48:46.389Z,5.60
2019-05-05T06:51:16.542Z,5.60
2019-05-05T06:53:47.045Z,5.60
2019-05-05T06:56:16.533Z,5.60
2019-05-05T06:58:45.840Z,5.60
2019-05-05T07:01:15.202Z,5.70
2019-05-05T07:03:44.705Z,5.80
2019-05-05T07:06:14.683Z,5.80
2019-05-05T07:08:44.749Z,5.90
2019-05-05T07:11:14.650Z,6.00
2019-05-05T07:13:44.983Z,6.00
2019-05-05T07:16:15.056Z,6.00
2019-05-05T07:18:44.792Z,6.00
2019-05-05T07:21:15.702Z,6.10
2019-05-05T07:24:04.536Z,6.20
2019-05-05T07:26:34.135Z,6.20
2019-05-05T07:29:04.669Z,6.20
2019-05-05T07:31:34.534Z,6.20
2019-05-05T07:34:05.270Z,6.40
2019-05-05T07:36:44.835Z,6.40
2019-05-05T07:39:14.642Z,6.40
2019-05-05T07:41:44.817Z,6.30
2019-05-05T07:44:25.796Z,6.30
2019-05-05T07:46:46.301Z,6.20
2019-05-05T07:49:15.864Z,6.30
2019-05-05T07:51:46.894Z,6.30
2019-05-05T07:54:16.637Z,6.30
2019-05-05T07:56:46.698Z,6.30
2019-05-05T07:59:16.292Z,6.40
2019-05-05T08:01:46.759Z,6.40
2019-05-05T08:04:16.341Z,6.50
2019-05-05T08:06:46.783Z,6.60
2019-05-05T08:09:16.148Z,6.60
2019-05-05T08:11:45.559Z,6.70
2019-05-05T08:14:15.001Z,6.70
2019-05-05T08:17:05.723Z,6.80
2019-05-05T08:19:51.526Z,6.80
2019-05-05T08:22:20.965Z,6.90
2019-05-05T08:25:14.368Z,6.90
2019-05-05T08:28:14.693Z,7.00
2019-05-05T08:31:18.725Z,7.00
2019-05-05T08:33:48.074Z,7.00
2019-05-05T08:36:17.422Z,7.10
2019-05-05T08:38:47.549Z,7.10
2019-05-05T08:41:16.895Z,7.10
2019-05-05T08:43:46.277Z,7.10
2019-05-05T08:46:15.618Z,7.10
2019-05-05T08:48:44.942Z,7.10
2019-05-05T08:51:14.409Z,7.20
2019-05-05T08:53:47.951Z,7.30
2019-05-05T08:56:14.973Z,7.40
2019-05-05T08:58:44.331Z,7.40
2019-05-05T09:01:14.981Z,7.40
2019-05-05T09:03:44.707Z,7.40
2019-05-05T09:06:14.061Z,7.30
2019-05-05T09:08:44.132Z,7.20
2019-05-05T09:11:14.221Z,7.10
2019-05-05T09:13:44.703Z,7.10
2019-05-05T09:16:15.140Z,7.00
2019-05-05T09:19:00.130Z,7.00
2019-05-05T09:21:29.468Z,7.00
2019-05-05T09:24:03.188Z,7.00
2019-05-05T09:26:44.323Z,7.20
2019-05-05T09:29:20.849Z,7.20
2019-05-05T09:31:50.216Z,7.20
2019-05-05T09:34:19.694Z,7.20
2019-05-05T09:36:49.555Z,7.30
2019-05-05T09:39:18.911Z,7.40
2019-05-05T09:41:48.258Z,7.50
2019-05-05T09:44:17.686Z,7.50
2019-05-05T09:46:47.489Z,7.60
2019-05-05T09:49:17.688Z,7.70
2019-05-05T09:51:47.933Z,7.80
2019-05-05T09:54:18.018Z,7.90
2019-05-05T09:56:47.985Z,7.90
2019-05-05T09:59:18.136Z,7.90
2019-05-05T10:01:48.375Z,7.90
2019-05-05T10:04:18.452Z,8.00
2019-05-05T10:06:48.466Z,7.90
2019-05-05T10:09:18.401Z,7.90
2019-05-05T10:11:48.756Z,7.90
2019-05-05T10:14:18.795Z,7.80
2019-05-05T10:16:48.828Z,7.90
2019-05-05T10:19:19.065Z,7.90
2019-05-05T10:21:49.280Z,8.00
2019-05-05T10:24:30.867Z,8.00
2019-05-05T10:26:58.915Z,7.90
2019-05-05T10:29:29.665Z,7.90
2019-05-05T10:31:59.692Z,7.80
2019-05-05T10:34:29.694Z,7.70
2019-05-05T10:36:59.858Z,7.70
2019-05-05T10:39:38.713Z,7.70
2019-05-05T10:42:09.086Z,7.80
2019-05-05T10:44:39.288Z,7.90
2019-05-05T10:47:09.452Z,8.00
2019-05-05T10:49:39.468Z,8.10
2019-05-05T10:52:10.746Z,8.20
2019-05-05T10:54:44.594Z,8.30
2019-05-05T10:57:14.521Z,8.30
2019-05-05T10:59:45.040Z,8.50
2019-05-05T11:02:14.335Z,8.50
2019-05-05T11:04:44.308Z,8.60
2019-05-05T11:07:14.719Z,8.70
2019-05-05T11:09:44.689Z,8.80
2019-05-05T11:12:14.705Z,8.70
2019-05-05T11:14:44.796Z,8.70
2019-05-05T11:17:14.830Z,8.50
2019-05-05T11:19:45.177Z,8.50
2019-05-05T11:22:14.977Z,8.50
2019-05-05T11:24:57.221Z,8.50
2019-05-05T11:27:17.331Z,8.60
2019-05-05T11:30:04.524Z,8.80
2019-05-05T11:32:52.042Z,8.80
2019-05-05T11:35:24.470Z,8.90
2019-05-05T11:37:54.301Z,8.90
2019-05-05T11:40:33.187Z,8.80
2019-05-05T11:43:03.751Z,8.80
2019-05-05T11:45:34.419Z,8.80
2019-05-05T11:48:04.593Z,8.90
2019-05-05T11:50:34.263Z,8.90
2019-05-05T11:53:04.203Z,8.90
2019-05-05T11:55:33.625Z,8.90
2019-05-05T11:58:03.590Z,8.90
2019-05-05T12:00:34.709Z,8.90
2019-05-05T12:03:04.954Z,8.90
2019-05-05T12:05:34.280Z,8.90
2019-05-05T12:08:03.981Z,8.80
2019-05-05T12:10:59.776Z,8.70
2019-05-05T12:13:29.454Z,8.70
2019-05-05T12:16:04.561Z,8.50
2019-05-05T12:18:34.649Z,8.50
2019-05-05T12:21:05.311Z,8.50
2019-05-05T12:23:35.389Z,8.50
2019-05-05T12:26:29.974Z,8.60
2019-05-05T12:29:09.589Z,8.60
2019-05-05T12:31:44.405Z,8.50
2019-05-05T12:34:13.793Z,8.50
2019-05-05T12:36:44.526Z,8.30
2019-05-05T12:39:15.483Z,8.20
2019-05-05T12:41:45.301Z,8.10
2019-05-05T12:44:28.359Z,8.10
2019-05-05T12:47:14.484Z,8.20
2019-05-05T12:49:44.434Z,8.20
2019-05-05T12:52:14.003Z,8.40
2019-05-05T12:54:44.125Z,8.40
2019-05-05T12:57:14.173Z,8.40
2019-05-05T12:59:44.415Z,8.30
2019-05-05T13:02:14.712Z,8.30
2019-05-05T13:04:44.017Z,8.30
2019-05-05T13:07:13.618Z,8.20
2019-05-05T13:09:44.131Z,8.30
2019-05-05T13:12:14.978Z,8.30
2019-05-05T13:14:45.088Z,8.20
2019-05-05T13:17:14.400Z,8.30
2019-05-05T13:19:58.586Z,8.20
2019-05-05T13:22:49.849Z,8.10
2019-05-05T13:25:26.917Z,8.10
2019-05-05T13:27:57.427Z,8.00
2019-05-05T13:30:26.989Z,8.00
2019-05-05T13:32:56.429Z,7.90
2019-05-05T13:35:25.745Z,8.00
2019-05-05T13:37:55.206Z,8.00
2019-05-05T13:40:24.601Z,8.00
2019-05-05T13:42:54.722Z,8.00
2019-05-05T13:45:34.925Z,8.10
2019-05-05T13:48:04.904Z,8.10
2019-05-05T13:50:38.133Z,8.10
2019-05-05T13:53:07.692Z,8.00
2019-05-05T13:55:36.973Z,8.00
2019-05-05T13:58:08.691Z,8.00
2019-05-05T14:00:37.327Z,8.00
2019-05-05T14:03:06.663Z,8.00
2019-05-05T14:05:35.975Z,8.00
2019-05-05T14:08:05.397Z,7.90
2019-05-05T14:10:34.792Z,7.90
2019-05-05T14:13:04.137Z,7.90
2019-05-05T14:15:34.116Z,7.90
2019-05-05T14:18:04.110Z,7.90
2019-05-05T14:20:34.521Z,7.80
2019-05-05T14:23:04.913Z,7.90
2019-05-05T14:25:34.209Z,7.80
2019-05-05T14:28:03.924Z,7.90
2019-05-05T14:31:05.277Z,7.80
2019-05-05T14:33:55.669Z,7.70
2019-05-05T14:36:44.172Z,7.70
2019-05-05T14:39:15.022Z,7.70
2019-05-05T14:41:44.621Z,7.60
2019-05-05T14:44:15.235Z,7.60
2019-05-05T14:46:44.677Z,7.60
2019-05-05T14:49:14.190Z,7.60
2019-05-05T14:51:44.671Z,7.60
2019-05-05T14:54:14.987Z,7.60
2019-05-05T14:56:44.973Z,7.60
2019-05-05T14:59:14.419Z,7.70
2019-05-05T15:01:44.711Z,7.60
2019-05-05T15:04:16.513Z,7.60
2019-05-05T15:07:10.897Z,7.60
2019-05-05T15:09:46.696Z,7.60
2019-05-05T15:12:38.530Z,7.60
2019-05-05T15:15:08.711Z,7.50
2019-05-05T15:17:38.033Z,7.50
2019-05-05T15:20:08.949Z,7.40
2019-05-05T15:22:38.260Z,7.40
2019-05-05T15:25:07.561Z,7.30
2019-05-05T15:27:37.002Z,7.30
2019-05-05T15:30:07.388Z,7.30
2019-05-05T15:32:36.845Z,7.30
2019-05-05T15:35:07.217Z,7.40
2019-05-05T15:37:36.545Z,7.30
2019-05-05T15:40:06.714Z,7.30
2019-05-05T15:42:36.066Z,7.30
2019-05-05T15:45:06.387Z,7.30
2019-05-05T15:47:35.679Z,7.20
2019-05-05T15:50:05.573Z,7.20
2019-05-05T15:52:35.282Z,7.20
2019-05-05T15:55:07.016Z,7.10
2019-05-05T15:57:36.285Z,7.10
2019-05-05T16:00:06.469Z,7.20
2019-05-05T16:02:36.164Z,7.20
2019-05-05T16:05:06.662Z,7.00
2019-05-05T16:07:36.475Z,7.00
2019-05-05T16:10:06.569Z,7.00
2019-05-05T16:12:39.317Z,6.90
2019-05-05T16:15:34.577Z,6.90
2019-05-05T16:18:16.089Z,6.90
2019-05-05T16:20:50.409Z,7.00
2019-05-05T16:23:23.957Z,7.00
2019-05-05T16:25:54.326Z,7.00
2019-05-05T16:28:25.133Z,7.00
2019-05-05T16:30:57.463Z,7.00
2019-05-05T16:33:27.656Z,7.00
2019-05-05T16:35:57.874Z,7.00
2019-05-05T16:38:27.518Z,7.00
2019-05-05T16:40:56.973Z,7.00
2019-05-05T16:43:26.318Z,7.00
2019-05-05T16:45:56.301Z,7.00
2019-05-05T16:48:27.149Z,7.00
2019-05-05T16:50:56.520Z,6.90
2019-05-05T16:53:35.762Z,6.90
2019-05-05T16:56:06.833Z,6.90
2019-05-05T16:58:36.267Z,7.00
2019-05-05T17:01:09.265Z,7.20
2019-05-05T17:03:38.661Z,7.10
2019-05-05T17:06:07.989Z,7.10
2019-05-05T17:08:37.361Z,7.10
2019-05-05T17:11:06.770Z,7.10
2019-05-05T17:13:43.915Z,7.10
2019-05-05T17:16:50.342Z,7.10
2019-05-05T17:19:40.025Z,7.00
2019-05-05T17:22:27.400Z,7.00
2019-05-05T17:24:57.818Z,7.00
2019-05-05T17:27:27.197Z,7.00
2019-05-05T17:29:56.491Z,7.00
2019-05-05T17:32:25.872Z,7.00
2019-05-05T17:34:55.247Z,7.00
2019-05-05T17:37:24.609Z,7.10
2019-05-05T17:39:59.289Z,7.10
2019-05-05T17:42:47.563Z,7.10
2019-05-05T17:45:48.453Z,7.10
2019-05-05T17:48:39.627Z,7.00
2019-05-05T17:51:23.442Z,6.90
2019-05-05T17:54:18.641Z,6.80
2019-05-05T17:56:49.081Z,6.70
2019-05-05T17:59:18.397Z,6.70
2019-05-05T18:01:47.816Z,6.60
2019-05-05T18:04:17.202Z,6.60
2019-05-05T18:06:53.531Z,6.70
2019-05-05T18:09:27.530Z,6.60
2019-05-05T18:12:15.905Z,6.50
2019-05-05T18:14:45.889Z,6.40
2019-05-05T18:17:15.245Z,6.40
2019-05-05T18:19:44.550Z,6.40
2019-05-05T18:22:14.017Z,6.40
2019-05-05T18:24:44.627Z,6.40
2019-05-05T18:27:14.742Z,6.30
2019-05-05T18:29:44.102Z,6.20
2019-05-05T18:32:13.903Z,6.10
2019-05-05T18:34:43.941Z,6.20
2019-05-05T18:37:14.574Z,6.10
2019-05-05T18:39:44.191Z,6.10
2019-05-05T18:42:18.571Z,6.10
2019-05-05T18:44:50.783Z,6.10
2019-05-05T18:47:20.777Z,6.10
2019-05-05T18:49:50.619Z,6.10
2019-05-05T18:52:20.062Z,6.00
2019-05-05T18:54:49.552Z,6.00
2019-05-05T18:57:18.893Z,6.00
2019-05-05T18:59:48.256Z,6.00
2019-05-05T19:02:35.274Z,6.00
2019-05-05T19:05:19.765Z,6.00
2019-05-05T19:07:55.762Z,6.10
2019-05-05T19:10:24.225Z,6.00
2019-05-05T19:12:54.323Z,6.10
2019-05-05T19:15:24.576Z,6.10
2019-05-05T19:17:54.533Z,6.10
2019-05-05T19:20:29.909Z,6.10
2019-05-05T19:23:05.268Z,6.00
2019-05-05T19:25:35.794Z,6.00
2019-05-05T19:28:04.932Z,6.10
2019-05-05T19:30:36.104Z,6.10
2019-05-05T19:33:06.717Z,6.10
2019-05-05T19:35:44.260Z,6.10
2019-05-05T19:38:07.613Z,6.00
2019-05-05T19:40:36.941Z,6.00
2019-05-05T19:43:06.385Z,6.00
2019-05-05T19:45:35.772Z,6.00
2019-05-05T19:48:06.036Z,6.00
2019-05-05T19:50:49.785Z,6.00
2019-05-05T19:53:24.798Z,6.00
2019-05-05T19:55:56.181Z,6.00
2019-05-05T19:58:25.699Z,6.00
2019-05-05T20:01:00.100Z,6.10
2019-05-05T20:03:29.863Z,6.20
2019-05-05T20:05:59.780Z,6.20
2019-05-05T20:08:40.599Z,6.20
2019-05-05T20:11:00.165Z,6.20
2019-05-05T20:13:29.449Z,6.20
2019-05-05T20:16:18.914Z,6.10
2019-05-05T20:18:50.223Z,6.10
2019-05-05T20:21:19.212Z,6.10
2019-05-05T20:23:48.545Z,6.20
2019-05-05T20:26:17.870Z,6.20
2019-05-05T20:28:47.302Z,6.30
2019-05-05T20:31:16.641Z,6.30
2019-05-05T20:34:03.947Z,6.30
2019-05-05T20:36:34.972Z,6.10
2019-05-05T20:39:06.834Z,6.00
2019-05-05T20:41:36.211Z,6.00
2019-05-05T20:44:05.971Z,6.00
2019-05-05T20:46:35.959Z,6.00
2019-05-05T20:49:06.381Z,5.90
2019-05-05T20:51:35.794Z,6.00
2019-05-05T20:54:05.089Z,6.00
2019-05-05T20:56:34.648Z,6.10
2019-05-05T20:59:04.265Z,6.00
2019-05-05T21:01:34.757Z,6.10
2019-05-05T21:04:04.862Z,6.10
2019-05-05T21:06:34.720Z,6.10
2019-05-05T21:09:05.870Z,6.10
2019-05-05T21:11:35.449Z,6.10
2019-05-05T21:14:04.757Z,6.10
2019-05-05T21:16:34.389Z,6.10
2019-05-05T21:19:04.586Z,6.20
2019-05-05T21:21:36.332Z,6.20
2019-05-05T21:24:06.069Z,6.20
2019-05-05T21:26:56.924Z,6.20
2019-05-05T21:29:38.462Z,6.10
2019-05-05T21:31:57.320Z,6.10
2019-05-05T21:34:26.653Z,6.10
2019-05-05T21:36:55.986Z,6.10
2019-05-05T21:39:25.252Z,6.10
2019-05-05T21:41:54.586Z,6.10
2019-05-05T21:44:23.878Z,6.10
2019-05-05T21:46:53.784Z,6.10
2019-05-05T21:49:24.238Z,6.20
2019-05-05T21:52:09.013Z,6.10
2019-05-05T21:54:43.958Z,6.10
2019-05-05T21:57:34.615Z,6.10
2019-05-05T22:00:08.945Z,6.10
2019-05-05T22:02:38.287Z,6.00
2019-05-05T22:05:08.529Z,6.00
2019-05-05T22:07:37.883Z,6.10
2019-05-05T22:10:07.569Z,6.10
2019-05-05T22:12:36.897Z,6.10
2019-05-05T22:15:07.541Z,6.10
2019-05-05T22:17:36.819Z,6.20
2019-05-05T22:20:15.932Z,6.20
2019-05-05T22:22:46.495Z,6.20
2019-05-05T22:25:15.815Z,6.20
2019-05-05T22:27:45.085Z,6.20
2019-05-05T22:30:14.420Z,6.10
2019-05-05T22:32:44.222Z,6.20
2019-05-05T22:35:16.302Z,6.10
2019-05-05T22:37:45.986Z,6.10
2019-05-05T22:40:24.433Z,6.10
2019-05-05T22:42:54.643Z,6.20
2019-05-05T22:45:24.712Z,6.10
2019-05-05T22:47:54.378Z,6.10
2019-05-05T22:50:24.824Z,6.10
2019-05-05T22:52:54.817Z,6.00
2019-05-05T22:55:24.731Z,6.00
2019-05-05T22:57:54.797Z,6.00
2019-05-05T23:00:29.517Z,6.00
2019-05-05T23:03:15.669Z,5.90
2019-05-05T23:05:57.970Z,5.90
2019-05-05T23:08:27.273Z,5.90
2019-05-05T23:10:56.599Z,5.80
2019-05-05T23:13:25.933Z,5.80
2019-05-05T23:16:03.995Z,5.80
2019-05-05T23:18:34.792Z,5.80
2019-05-05T23:21:16.180Z,5.80
2019-05-05T23:24:03.856Z,5.80
2019-05-05T23:26:36.309Z,5.60
2019-05-05T23:29:05.637Z,5.50
2019-05-05T23:31:35.017Z,5.40
2019-05-05T23:34:04.733Z,5.50
2019-05-05T23:36:34.110Z,5.40
2019-05-05T23:39:06.416Z,5.40
2019-05-05T23:41:36.514Z,5.30
2019-05-05T23:44:06.126Z,5.30
2019-05-05T23:46:35.456Z,5.30
2019-05-05T23:49:05.240Z,5.30
2019-05-05T23:51:34.896Z,5.30
2019-05-05T23:54:04.837Z,5.30
2019-05-05T23:56:34.987Z,5.30
2019-05-05T23:59:05.034Z,5.30
